Hayden, Indiana
Current Conditions -  °F | °C
As of 4:50 PM on Friday 31 Oct 2014 (Local Time) from KBAK Reporting Station
Overcast Overcast  
Wind Chill: 30°   Ceiling: 3400
Heat Index: 39°   Visibility: 10mi
Dew Point: 32°   Wind: 17mph
Humidity: 75%   Direction: 300°WNW
Pressure: 30"   Gusts: NA
Location:  38.98°N, 85.74°W
Report Text: KBAK 312050Z 30015KT G25 10SM SCT027 OVC034 04/00 A3000
Loading
Personal Weather Stations






























Interactive Weather Map
Tropical Storm Tracking
New forecast layout! Learn more

10-Day Weather Forecast

Advertisements
Track Severe Weather on mobile